Huvudsida
METAR-TAF:

METAR-TAF

Flygplatser :

Stockholm Skavsta Airport

Stockholm-Skavsta, Sverige

latitud: 58-47N, longitud: 016-55E, höjd: 43 m

Aktuellt väderrapport

Denna rapport gjordes för 46 minuter sedan, klockan 03:50 UTC
Vind 12 kt från väst/sydväst
Temperatur 4°C
Fuktighet 81%
Tryck 998 hPa
Sikt 10 km eller mer
Mulet på en höjd av 2600 ft

METAR: ESKN 190350Z 25012KT 9999 OVC026 04/01 Q0998 R26/09//95

Tid: 05:36 (04:36 UTC)

Väderprognos

Denna rapport gjordes för 5 timmar och 6 minuter sedan, klockan 23:30 UTC
Prognos gäller från 19 kl. 00 UTC till 19 kl. 24 UTC
Vind 17 kt från väst/sydväst i byarna ända upp till 27 kt
Sikt 10 km eller mer
Brutna moln på en höjd av 3000 ft
Blir
från 19 kl. 02 UTC till 19 kl. 04 UTC
Vind 10 kt från syd/sydväst

TAF: ESKN 182330Z 1900/1924 25017G27KT 9999 BKN030 BECMG 1902/1904 21010KT

Aktuella väderrapporter och prognoser från 4000 flygplatser (METAR- och TAF-rapporter).

De tillgängliga stationerna syns som gula och röda prickar på kartan.

För musen över prickarna för att se namnen på stationerna.

Klicka sedan för att få väderrapporter och prognoser.

För att ändra kartan: Klicka på de gröna knapparna med ett svart kors på för att zooma in; den gröna knappen med ett streck på för att zooma ut; eller på de gröna pilarna för angränsande kartor.


METAR-TAF: